Yoder, Kansas
Current Conditions -  °F | °C
As of 1:10 AM on Sunday 23 Nov 2014 (Local Time) from KHUT Reporting Station
Haze Haze  
Wind Chill: 53°   Ceiling: 400
Heat Index: 53°   Visibility: 2.5mi
Dew Point: 51°   Wind: 17mph
Humidity: 93%   Direction: 180°S
Pressure: 29.56"   Gusts: NA
Location:  37.94°N, 97.87°W
Report Text: KHUT 230710Z AUTO 18015KT 2 1/2SM BR OVC004 12/11 A2956 RMK AO2 T01170106
Loading
Personal Weather Stations






























Interactive Weather Map New forecast layout! Learn more

10-Day Weather Forecast

Advertisements
Track Severe Weather on mobile